createdAt,value
2018-08-30T00:01:57.042Z,99054.11
2018-08-30T00:04:26.295Z,99054.11
2018-08-30T00:06:55.350Z,99055.23
2018-08-30T00:09:24.546Z,99053.95
2018-08-30T00:11:54.091Z,99052.91
2018-08-30T00:14:23.187Z,99055.07
2018-08-30T00:16:52.436Z,99062.30
2018-08-30T00:19:21.519Z,99054.04
2018-08-30T00:21:50.506Z,99054.13
2018-08-30T00:24:20.440Z,99056.95
2018-08-30T00:26:49.549Z,99057.60
2018-08-30T00:29:18.805Z,99055.98
2018-08-30T00:31:48.072Z,99056.31
2018-08-30T00:34:17.275Z,99051.38
2018-08-30T00:36:46.199Z,99054.13
2018-08-30T00:39:15.319Z,99050.66
2018-08-30T00:41:44.312Z,99060.03
2018-08-30T00:44:13.873Z,99057.03
2018-08-30T00:46:42.934Z,99061.41
2018-08-30T00:49:12.259Z,99066.66
2018-08-30T00:51:41.744Z,99063.44
2018-08-30T00:54:11.090Z,99063.75
2018-08-30T00:56:40.134Z,99067.31
2018-08-30T00:59:09.328Z,99070.06
2018-08-30T01:01:38.803Z,99073.63
2018-08-30T01:04:07.922Z,99070.06
2018-08-30T01:06:37.334Z,99082.70
2018-08-30T01:09:10.112Z,99083.17
2018-08-30T01:11:42.859Z,99077.67
2018-08-30T01:14:12.083Z,99079.30
2018-08-30T01:16:41.087Z,99077.36
2018-08-30T01:19:10.222Z,99093.05
2018-08-30T01:21:39.182Z,99115.32
2018-08-30T01:24:08.513Z,99129.95
2018-08-30T01:26:37.721Z,99141.61
2018-08-30T01:29:07.246Z,99142.82
2018-08-30T01:31:36.530Z,99136.30
2018-08-30T01:34:05.489Z,99140.27
2018-08-30T01:36:34.652Z,99141.47
2018-08-30T01:39:04.568Z,99137.09
2018-08-30T01:41:34.413Z,99145.18
2018-08-30T01:44:03.573Z,99142.26
2018-08-30T01:46:32.812Z,99136.03
2018-08-30T01:49:01.970Z,99128.98
2018-08-30T01:51:30.991Z,99135.91
2018-08-30T01:53:59.893Z,99137.38
2018-08-30T01:56:29.633Z,99127.83
2018-08-30T01:58:58.695Z,99134.93
2018-08-30T02:01:27.981Z,99133.81
2018-08-30T02:03:57.258Z,99128.88
2018-08-30T02:06:26.363Z,99127.19
2018-08-30T02:08:55.492Z,99125.25
2018-08-30T02:11:24.896Z,99116.44
2018-08-30T02:13:54.232Z,99118.59
2018-08-30T02:16:23.602Z,99125.73
2018-08-30T02:18:52.931Z,99117.98
2018-08-30T02:21:21.907Z,99122.59
2018-08-30T02:23:50.903Z,99118.38
2018-08-30T02:26:19.889Z,99122.75
2018-08-30T02:28:49.629Z,99125.76
2018-08-30T02:31:20.560Z,99117.98
2018-08-30T02:33:49.587Z,99121.33
2018-08-30T02:36:18.726Z,99121.55
2018-08-30T02:38:47.926Z,99121.23
2018-08-30T02:41:17.001Z,99120.67
2018-08-30T02:43:46.148Z,99123.34
2018-08-30T02:46:15.515Z,99126.00
2018-08-30T02:48:44.834Z,99122.69
2018-08-30T02:51:13.840Z,99122.38
2018-08-30T02:53:43.353Z,99125.61
2018-08-30T02:56:12.313Z,99126.98
2018-08-30T02:58:41.483Z,99124.48
2018-08-30T03:01:10.406Z,99130.24
2018-08-30T03:03:39.777Z,99127.74
2018-08-30T03:06:09.040Z,99130.50
2018-08-30T03:08:38.088Z,99121.12
2018-08-30T03:11:07.454Z,99123.05
2018-08-30T03:13:36.502Z,99123.62
2018-08-30T03:16:05.646Z,99124.99
2018-08-30T03:18:34.765Z,99129.63
2018-08-30T03:21:03.982Z,99114.12
2018-08-30T03:23:33.239Z,99129.06
2018-08-30T03:26:03.157Z,99133.44
2018-08-30T03:28:32.315Z,99136.98
2018-08-30T03:31:01.506Z,99128.41
2018-08-30T03:33:30.836Z,99126.73
2018-08-30T03:36:00.610Z,99125.35
2018-08-30T03:38:29.680Z,99129.48
2018-08-30T03:40:58.760Z,99133.61
2018-08-30T03:43:28.024Z,99138.05
2018-08-30T03:45:56.988Z,99139.11
2018-08-30T03:48:26.263Z,99137.48
2018-08-30T03:50:55.479Z,99142.73
2018-08-30T03:53:25.211Z,99144.11
2018-08-30T03:55:54.288Z,99141.92
2018-08-30T03:58:23.949Z,99139.17
2018-08-30T04:00:53.156Z,99137.80
2018-08-30T04:03:22.354Z,99144.11
2018-08-30T04:05:51.462Z,99146.55
2018-08-30T04:08:20.589Z,99145.98
2018-08-30T04:10:49.607Z,99144.11
2018-08-30T04:13:18.710Z,99144.67
2018-08-30T04:15:47.886Z,99144.11
2018-08-30T04:18:17.067Z,99146.61
2018-08-30T04:20:46.323Z,99150.73
2018-08-30T04:23:15.606Z,99146.38
2018-08-30T04:25:44.725Z,99146.13
2018-08-30T04:28:13.723Z,99155.20
2018-08-30T04:30:42.695Z,99156.83
2018-08-30T04:33:12.158Z,99160.95
2018-08-30T04:35:41.235Z,99164.27
2018-08-30T04:38:10.489Z,99164.27
2018-08-30T04:40:39.515Z,99166.77
2018-08-30T04:43:08.674Z,99172.27
2018-08-30T04:45:38.341Z,99181.00
2018-08-30T04:48:07.584Z,99175.50
2018-08-30T04:50:36.805Z,99182.33
2018-08-30T04:53:06.491Z,99178.76
2018-08-30T04:55:36.216Z,99190.33
2018-08-30T04:58:05.407Z,99188.64
2018-08-30T05:00:34.384Z,99195.44
2018-08-30T05:03:04.311Z,99203.38
2018-08-30T05:05:33.450Z,99198.36
2018-08-30T05:08:02.507Z,99199.42
2018-08-30T05:10:31.646Z,99204.84
2018-08-30T05:13:00.981Z,99207.84
2018-08-30T05:15:30.137Z,99198.77
2018-08-30T05:17:59.900Z,99202.09
2018-08-30T05:20:29.459Z,99215.03
2018-08-30T05:22:58.683Z,99202.99
2018-08-30T05:25:28.186Z,99221.75
2018-08-30T05:27:57.285Z,99207.52
2018-08-30T05:30:32.857Z,99214.87
2018-08-30T05:33:02.511Z,99211.55
2018-08-30T05:35:31.536Z,99212.42
2018-08-30T05:38:00.731Z,99209.92
2018-08-30T05:40:29.966Z,99213.02
2018-08-30T05:42:59.134Z,99213.02
2018-08-30T05:45:28.377Z,99211.64
2018-08-30T05:47:57.696Z,99219.55
2018-08-30T05:50:26.824Z,99215.69
2018-08-30T05:52:55.866Z,99224.19
2018-08-30T05:55:25.585Z,99208.97
2018-08-30T05:57:55.299Z,99220.28
2018-08-30T06:00:25.129Z,99217.53
2018-08-30T06:02:55.189Z,99222.73
2018-08-30T06:05:24.901Z,99212.54
2018-08-30T06:07:54.437Z,99217.23
2018-08-30T06:10:23.737Z,99234.64
2018-08-30T06:12:52.961Z,99228.88
2018-08-30T06:15:22.168Z,99230.26
2018-08-30T06:17:51.514Z,99233.02
2018-08-30T06:20:20.637Z,99233.02
2018-08-30T06:22:49.733Z,99238.98
2018-08-30T06:25:19.238Z,99244.19
2018-08-30T06:27:48.413Z,99237.78
2018-08-30T06:30:17.686Z,99254.72
2018-08-30T06:32:46.753Z,99247.75
2018-08-30T06:35:16.628Z,99229.55
2018-08-30T06:37:45.697Z,99227.78
2018-08-30T06:40:15.613Z,99227.39
2018-08-30T06:42:45.043Z,99229.75
2018-08-30T06:45:14.515Z,99223.59
2018-08-30T06:47:43.674Z,99225.94
2018-08-30T06:50:12.899Z,99226.67
2018-08-30T06:52:42.122Z,99225.70
2018-08-30T06:55:11.360Z,99232.76
2018-08-30T06:57:40.906Z,99226.28
2018-08-30T07:00:10.369Z,99237.47
2018-08-30T07:02:39.576Z,99232.93
2018-08-30T07:05:09.133Z,99220.73
2018-08-30T07:07:38.747Z,99228.75
2018-08-30T07:10:07.686Z,99223.55
2018-08-30T07:12:36.812Z,99231.10
2018-08-30T07:15:06.599Z,99234.02
2018-08-30T07:17:36.280Z,99223.05
2018-08-30T07:20:05.760Z,99236.27
2018-08-30T07:22:34.890Z,99232.45
2018-08-30T07:25:04.433Z,99228.37
2018-08-30T07:27:33.361Z,99235.31
2018-08-30T07:30:02.504Z,99239.78
2018-08-30T07:32:32.066Z,99243.77
2018-08-30T07:35:01.322Z,99257.70
2018-08-30T07:37:30.400Z,99255.76
2018-08-30T07:39:59.500Z,99259.02
2018-08-30T07:42:28.875Z,99255.69
2018-08-30T07:44:58.198Z,99242.84
2018-08-30T07:47:27.363Z,99251.04
2018-08-30T07:49:56.455Z,99275.20
2018-08-30T07:52:26.431Z,99263.04
2018-08-30T07:54:55.398Z,99271.78
2018-08-30T07:57:24.449Z,99263.09
2018-08-30T07:59:53.653Z,99268.66
2018-08-30T08:02:23.135Z,99267.82
2018-08-30T08:04:52.442Z,99292.64
2018-08-30T08:07:21.718Z,99269.81
2018-08-30T08:09:51.097Z,99274.92
2018-08-30T08:12:20.299Z,99271.24
2018-08-30T08:14:49.559Z,99261.83
2018-08-30T08:17:24.852Z,99268.02
2018-08-30T08:19:54.413Z,99266.39
2018-08-30T08:22:23.646Z,99287.09
2018-08-30T08:24:53.104Z,99282.70
2018-08-30T08:27:22.652Z,99281.33
2018-08-30T08:29:52.039Z,99280.66
2018-08-30T08:32:21.109Z,99285.50
2018-08-30T08:34:50.318Z,99275.42
2018-08-30T08:37:19.462Z,99284.48
2018-08-30T08:39:48.700Z,99281.52
2018-08-30T08:42:17.850Z,99277.44
2018-08-30T08:44:47.123Z,99287.14
2018-08-30T08:47:16.556Z,99284.20
2018-08-30T08:49:45.897Z,99286.19
2018-08-30T08:52:14.884Z,99288.34
2018-08-30T08:54:43.909Z,99287.34
2018-08-30T08:57:16.509Z,99296.23
2018-08-30T08:59:46.644Z,99286.13
2018-08-30T09:02:15.723Z,99298.45
2018-08-30T09:04:45.062Z,99299.51
2018-08-30T09:07:15.502Z,99287.53
2018-08-30T09:09:44.978Z,99283.31
2018-08-30T09:12:14.169Z,99293.44
2018-08-30T09:14:43.203Z,99301.16
2018-08-30T09:17:12.530Z,99290.36
2018-08-30T09:19:41.668Z,99292.47
2018-08-30T09:22:10.718Z,99295.13
2018-08-30T09:24:39.856Z,99297.00
2018-08-30T09:27:09.760Z,99297.56
2018-08-30T09:29:38.914Z,99293.74
2018-08-30T09:32:08.177Z,99289.52
2018-08-30T09:34:37.894Z,99293.09
2018-08-30T09:37:06.998Z,99301.95
2018-08-30T09:39:35.982Z,99298.02
2018-08-30T09:42:05.187Z,99294.26
2018-08-30T09:44:34.132Z,99312.03
2018-08-30T09:47:03.988Z,99291.67
2018-08-30T09:49:33.188Z,99292.95
2018-08-30T09:52:03.450Z,99281.70
2018-08-30T09:54:32.519Z,99292.31
2018-08-30T09:57:01.996Z,99292.33
2018-08-30T09:59:32.517Z,99278.52
2018-08-30T10:02:06.487Z,99274.17
2018-08-30T10:04:35.467Z,99282.03
2018-08-30T10:07:04.684Z,99284.34
2018-08-30T10:09:33.858Z,99278.70
2018-08-30T10:12:03.338Z,99278.13
2018-08-30T10:14:32.491Z,99276.50
2018-08-30T10:17:02.544Z,99276.98
2018-08-30T10:19:31.569Z,99281.86
2018-08-30T10:22:00.830Z,99278.98
2018-08-30T10:24:29.974Z,99293.41
2018-08-30T10:26:59.476Z,99284.19
2018-08-30T10:29:28.318Z,99276.34
2018-08-30T10:31:57.471Z,99271.53
2018-08-30T10:34:26.871Z,99277.77
2018-08-30T10:36:56.022Z,99269.01
2018-08-30T10:39:25.371Z,99276.37
2018-08-30T10:41:54.594Z,99278.45
2018-08-30T10:44:23.701Z,99278.94
2018-08-30T10:46:52.837Z,99277.11
2018-08-30T10:49:22.449Z,99278.73
2018-08-30T10:51:51.653Z,99274.12
2018-08-30T10:54:21.146Z,99267.33
2018-08-30T10:56:51.095Z,99262.72
2018-08-30T10:59:20.345Z,99265.84
2018-08-30T11:01:49.664Z,99258.10
2018-08-30T11:04:19.429Z,99280.61
2018-08-30T11:06:48.875Z,99271.40
2018-08-30T11:09:18.075Z,99269.80
2018-08-30T11:11:47.196Z,99265.66
2018-08-30T11:14:16.612Z,99272.34
2018-08-30T11:16:45.989Z,99275.22
2018-08-30T11:19:15.178Z,99265.06
2018-08-30T11:21:44.792Z,99270.03
2018-08-30T11:24:14.340Z,99279.73
2018-08-30T11:26:43.818Z,99272.47
2018-08-30T11:29:13.134Z,99252.70
2018-08-30T11:31:42.283Z,99276.73
2018-08-30T11:34:11.927Z,99273.95
2018-08-30T11:36:41.087Z,99267.03
2018-08-30T11:39:10.729Z,99272.32
2018-08-30T11:41:39.875Z,99272.67
2018-08-30T11:44:09.991Z,99263.41
2018-08-30T11:46:39.346Z,99268.86
2018-08-30T11:49:09.220Z,99291.01
2018-08-30T11:51:38.851Z,99278.34
2018-08-30T11:54:08.304Z,99281.08
2018-08-30T11:56:37.514Z,99281.77
2018-08-30T11:59:06.775Z,99275.28
2018-08-30T12:01:35.978Z,99280.66
2018-08-30T12:04:05.734Z,99280.66
2018-08-30T12:06:34.960Z,99288.38
2018-08-30T12:09:05.971Z,99281.53
2018-08-30T12:11:36.772Z,99285.36
2018-08-30T12:14:05.927Z,99285.09
2018-08-30T12:16:35.172Z,99274.59
2018-08-30T12:19:04.698Z,99278.70
2018-08-30T12:21:34.043Z,99275.83
2018-08-30T12:24:03.278Z,99274.88
2018-08-30T12:26:32.800Z,99284.02
2018-08-30T12:29:02.113Z,99281.09
2018-08-30T12:31:31.368Z,99270.91
2018-08-30T12:34:00.707Z,99283.95
2018-08-30T12:36:30.234Z,99269.70
2018-08-30T12:38:59.559Z,99282.43
2018-08-30T12:41:28.709Z,99283.82
2018-08-30T12:43:58.446Z,99270.98
2018-08-30T12:46:27.922Z,99273.96
2018-08-30T12:48:57.317Z,99275.44
2018-08-30T12:51:26.565Z,99260.73
2018-08-30T12:53:55.631Z,99278.88
2018-08-30T12:56:25.062Z,99276.09
2018-08-30T12:58:59.420Z,99265.22
2018-08-30T13:01:28.822Z,99262.88
2018-08-30T13:03:58.365Z,99271.88
2018-08-30T13:06:28.263Z,99279.29
2018-08-30T13:08:58.108Z,99281.72
2018-08-30T13:11:27.794Z,99274.80
2018-08-30T13:13:57.255Z,99273.80
2018-08-30T13:16:27.080Z,99277.11
2018-08-30T13:18:56.709Z,99278.66
2018-08-30T13:21:26.030Z,99280.19
2018-08-30T13:23:55.513Z,99285.34
2018-08-30T13:26:24.908Z,99278.05
2018-08-30T13:28:54.195Z,99278.42
2018-08-30T13:31:24.298Z,99288.17
2018-08-30T13:33:53.977Z,99282.18
2018-08-30T13:36:23.386Z,99285.90
2018-08-30T13:38:52.408Z,99287.55
2018-08-30T13:41:21.875Z,99296.10
2018-08-30T13:43:51.048Z,99294.95
2018-08-30T13:46:20.289Z,99293.82
2018-08-30T13:48:49.809Z,99298.41
2018-08-30T13:51:19.102Z,99291.63
2018-08-30T13:53:48.262Z,99300.29
2018-08-30T13:56:17.960Z,99309.28
2018-08-30T13:58:47.188Z,99310.20
2018-08-30T14:01:16.762Z,99318.28
2018-08-30T14:03:45.715Z,99320.01
2018-08-30T14:06:15.034Z,99322.63
2018-08-30T14:08:44.575Z,99330.67
2018-08-30T14:11:14.233Z,99322.70
2018-08-30T14:13:43.514Z,99316.47
2018-08-30T14:16:13.267Z,99321.63
2018-08-30T14:18:42.289Z,99317.68
2018-08-30T14:21:12.183Z,99319.95
2018-08-30T14:23:41.412Z,99323.61
2018-08-30T14:26:10.768Z,99330.89
2018-08-30T14:28:40.175Z,99340.17
2018-08-30T14:31:15.818Z,99327.09
2018-08-30T14:33:45.336Z,99338.67
2018-08-30T14:36:14.311Z,99339.73
2018-08-30T14:38:43.592Z,99339.04
2018-08-30T14:41:13.653Z,99339.44
2018-08-30T14:43:43.491Z,99345.57
2018-08-30T14:46:12.789Z,99354.00
2018-08-30T14:48:42.317Z,99349.52
2018-08-30T14:51:11.383Z,99351.92
2018-08-30T14:53:40.626Z,99355.91
2018-08-30T14:56:09.719Z,99375.02
2018-08-30T14:58:38.950Z,99353.77
2018-08-30T15:01:08.793Z,99353.22
2018-08-30T15:03:37.859Z,99356.02
2018-08-30T15:06:07.213Z,99354.55
2018-08-30T15:08:36.307Z,99354.48
2018-08-30T15:11:05.507Z,99355.77
2018-08-30T15:13:34.641Z,99348.34
2018-08-30T15:16:03.630Z,99353.73
2018-08-30T15:18:32.747Z,99361.03
2018-08-30T15:21:03.327Z,99358.77
2018-08-30T15:23:32.354Z,99373.35
2018-08-30T15:26:01.743Z,99374.97
2018-08-30T15:28:32.166Z,99383.22
2018-08-30T15:31:01.307Z,99390.34
2018-08-30T15:33:30.420Z,99399.42
2018-08-30T15:35:59.707Z,99398.89
2018-08-30T15:38:29.099Z,99414.79
2018-08-30T15:40:58.668Z,99409.50
2018-08-30T15:43:27.655Z,99419.94
2018-08-30T15:45:57.521Z,99442.00
2018-08-30T15:48:26.941Z,99435.63
2018-08-30T15:50:56.145Z,99422.89
2018-08-30T15:53:25.378Z,99452.84
2018-08-30T15:55:54.528Z,99456.98
2018-08-30T15:58:24.024Z,99466.30
2018-08-30T16:00:53.471Z,99472.47
2018-08-30T16:03:22.842Z,99453.66
2018-08-30T16:05:52.133Z,99454.40
2018-08-30T16:08:21.362Z,99475.39
2018-08-30T16:10:50.442Z,99450.01
2018-08-30T16:13:19.751Z,99446.88
2018-08-30T16:15:48.831Z,99444.86
2018-08-30T16:18:18.287Z,99459.48
2018-08-30T16:20:47.438Z,99450.16
2018-08-30T16:23:26.020Z,99446.11
2018-08-30T16:25:55.910Z,99462.35
2018-08-30T16:28:25.758Z,99472.20
2018-08-30T16:30:55.341Z,99491.14
2018-08-30T16:33:24.756Z,99496.80
2018-08-30T16:35:53.861Z,99522.77
2018-08-30T16:38:22.904Z,99513.09
2018-08-30T16:40:52.084Z,99534.13
2018-08-30T16:43:21.284Z,99530.68
2018-08-30T16:45:51.209Z,99548.66
2018-08-30T16:48:20.981Z,99533.45
2018-08-30T16:50:50.219Z,99540.44
2018-08-30T16:53:19.450Z,99543.30
2018-08-30T16:55:48.472Z,99562.88
2018-08-30T16:58:17.746Z,99553.94
2018-08-30T17:00:46.959Z,99558.44
2018-08-30T17:03:16.203Z,99552.23
2018-08-30T17:05:45.378Z,99549.36
2018-08-30T17:08:14.781Z,99550.36
2018-08-30T17:10:44.754Z,99557.31
2018-08-30T17:13:14.046Z,99571.17
2018-08-30T17:15:43.090Z,99572.62
2018-08-30T17:18:12.229Z,99581.94
2018-08-30T17:20:42.945Z,99580.95
2018-08-30T17:23:12.395Z,99579.39
2018-08-30T17:25:42.399Z,99584.66
2018-08-30T17:28:11.740Z,99596.22
2018-08-30T17:30:41.119Z,99583.97
2018-08-30T17:33:10.452Z,99579.63
2018-08-30T17:35:39.723Z,99568.20
2018-08-30T17:38:09.027Z,99577.55
2018-08-30T17:40:38.044Z,99588.02
2018-08-30T17:43:07.099Z,99594.02
2018-08-30T17:45:36.282Z,99595.42
2018-08-30T17:48:05.677Z,99595.45
2018-08-30T17:50:35.003Z,99603.41
2018-08-30T17:53:04.579Z,99611.33
2018-08-30T17:55:33.820Z,99611.60
2018-08-30T17:58:03.284Z,99623.36
2018-08-30T18:00:32.635Z,99622.27
2018-08-30T18:03:01.764Z,99628.56
2018-08-30T18:05:31.566Z,99623.09
2018-08-30T18:08:00.796Z,99629.92
2018-08-30T18:10:30.022Z,99624.18
2018-08-30T18:12:59.223Z,99633.75
2018-08-30T18:15:28.422Z,99631.30
2018-08-30T18:17:57.676Z,99637.03
2018-08-30T18:20:27.096Z,99647.45
2018-08-30T18:22:56.385Z,99648.81
2018-08-30T18:25:25.379Z,99646.91
2018-08-30T18:27:54.386Z,99650.70
2018-08-30T18:30:23.825Z,99649.88
2018-08-30T18:32:52.982Z,99645.78
2018-08-30T18:35:22.399Z,99664.65
2018-08-30T18:37:51.878Z,99662.46
2018-08-30T18:40:21.010Z,99658.91
2018-08-30T18:42:50.395Z,99663.02
2018-08-30T18:45:19.649Z,99662.73
2018-08-30T18:47:48.892Z,99662.73
2018-08-30T18:50:18.700Z,99663.31
2018-08-30T18:52:47.785Z,99670.41
2018-08-30T18:55:17.266Z,99665.48
2018-08-30T18:57:46.627Z,99682.95
2018-08-30T19:00:15.799Z,99677.24
2018-08-30T19:02:45.794Z,99678.61
2018-08-30T19:05:15.905Z,99681.89
2018-08-30T19:07:45.134Z,99678.88
2018-08-30T19:10:14.496Z,99672.28
2018-08-30T19:12:44.105Z,99669.80
2018-08-30T19:15:18.631Z,99674.43
2018-08-30T19:17:52.952Z,99671.40
2018-08-30T19:20:22.084Z,99674.66
2018-08-30T19:22:51.867Z,99668.09
2018-08-30T19:25:29.071Z,99665.61
2018-08-30T19:27:58.132Z,99667.25
2018-08-30T19:30:28.842Z,99672.17
2018-08-30T19:32:58.768Z,99681.47
2018-08-30T19:35:33.171Z,99683.66
2018-08-30T19:38:02.490Z,99688.04
2018-08-30T19:40:36.749Z,99688.56
2018-08-30T19:43:06.480Z,99694.85
2018-08-30T19:45:35.687Z,99700.88
2018-08-30T19:48:05.555Z,99692.36
2018-08-30T19:50:34.589Z,99689.36
2018-08-30T19:53:03.601Z,99685.23
2018-08-30T19:55:32.665Z,99687.39
2018-08-30T19:58:01.754Z,99684.93
2018-08-30T20:00:30.903Z,99682.98
2018-08-30T20:03:00.161Z,99687.64
2018-08-30T20:05:29.253Z,99684.05
2018-08-30T20:07:58.567Z,99680.50
2018-08-30T20:10:27.550Z,99678.83
2018-08-30T20:13:03.002Z,99675.27
2018-08-30T20:15:32.324Z,99683.17
2018-08-30T20:18:01.303Z,99673.02
2018-08-30T20:20:31.275Z,99668.64
2018-08-30T20:23:00.594Z,99661.80
2018-08-30T20:25:29.581Z,99658.80
2018-08-30T20:28:02.581Z,99659.03
2018-08-30T20:30:32.088Z,99660.95
2018-08-30T20:33:01.687Z,99657.63
2018-08-30T20:35:30.799Z,99665.27
2018-08-30T20:38:00.008Z,99665.27
2018-08-30T20:40:29.146Z,99666.60
2018-08-30T20:42:58.322Z,99667.39
2018-08-30T20:45:27.280Z,99665.44
2018-08-30T20:47:56.374Z,99662.16
2018-08-30T20:50:25.509Z,99662.97
2018-08-30T20:52:54.568Z,99666.50
2018-08-30T20:55:23.706Z,99662.91
2018-08-30T20:57:53.035Z,99674.41
2018-08-30T21:00:22.320Z,99669.20
2018-08-30T21:02:51.596Z,99663.97
2018-08-30T21:05:20.563Z,99667.77
2018-08-30T21:07:50.133Z,99663.38
2018-08-30T21:10:19.275Z,99670.19
2018-08-30T21:12:48.618Z,99666.63
2018-08-30T21:15:17.787Z,99668.78
2018-08-30T21:17:46.967Z,99671.28
2018-08-30T21:20:15.996Z,99675.64
2018-08-30T21:22:45.381Z,99675.67
2018-08-30T21:25:14.474Z,99678.72
2018-08-30T21:27:43.822Z,99684.74
2018-08-30T21:30:13.925Z,99684.19
2018-08-30T21:32:43.279Z,99687.99
2018-08-30T21:35:12.704Z,99678.68
2018-08-30T21:37:41.758Z,99682.48
2018-08-30T21:40:11.046Z,99677.78
2018-08-30T21:42:40.801Z,99682.13
2018-08-30T21:45:09.940Z,99679.63
2018-08-30T21:47:38.972Z,99682.92
2018-08-30T21:50:08.263Z,99683.73
2018-08-30T21:52:37.305Z,99666.23
2018-08-30T21:55:07.138Z,99669.53
2018-08-30T21:57:36.468Z,99666.24
2018-08-30T22:00:07.094Z,99677.52
2018-08-30T22:02:36.568Z,99687.65
2018-08-30T22:05:06.186Z,99679.78
2018-08-30T22:07:35.534Z,99681.45
2018-08-30T22:10:04.964Z,99680.95
2018-08-30T22:12:34.163Z,99681.77
2018-08-30T22:15:03.508Z,99681.25
2018-08-30T22:17:32.656Z,99680.43
2018-08-30T22:20:02.154Z,99685.67
2018-08-30T22:22:31.113Z,99688.98
2018-08-30T22:25:00.070Z,99679.68
2018-08-30T22:27:29.630Z,99676.94
2018-08-30T22:29:58.870Z,99680.26
2018-08-30T22:32:28.134Z,99678.34
2018-08-30T22:34:57.158Z,99669.30
2018-08-30T22:37:26.352Z,99670.41
2018-08-30T22:39:55.798Z,99676.70
2018-08-30T22:42:24.967Z,99675.33
2018-08-30T22:44:53.950Z,99681.08
2018-08-30T22:47:23.235Z,99677.80
2018-08-30T22:49:52.415Z,99675.88
2018-08-30T22:52:21.768Z,99669.86
2018-08-30T22:54:51.994Z,99664.93
2018-08-30T22:57:21.670Z,99676.70
2018-08-30T22:59:51.259Z,99677.52
2018-08-30T23:02:20.771Z,99679.71
2018-08-30T23:04:50.108Z,99677.25
2018-08-30T23:07:20.738Z,99668.77
2018-08-30T23:09:49.894Z,99666.30
2018-08-30T23:12:19.283Z,99669.30
2018-08-30T23:14:48.409Z,99671.50
2018-08-30T23:17:17.963Z,99666.02
2018-08-30T23:19:47.240Z,99668.48
2018-08-30T23:22:16.432Z,99653.16
2018-08-30T23:24:45.769Z,99656.44
2018-08-30T23:27:14.989Z,99665.75
2018-08-30T23:29:44.251Z,99659.76
2018-08-30T23:32:13.209Z,99658.39
2018-08-30T23:34:42.672Z,99663.89
2018-08-30T23:37:12.011Z,99666.09
2018-08-30T23:39:41.517Z,99673.20
2018-08-30T23:42:11.024Z,99678.44
2018-08-30T23:44:40.819Z,99663.50
2018-08-30T23:47:10.093Z,99680.11
2018-08-30T23:49:39.308Z,99678.19
2018-08-30T23:52:08.647Z,99673.54
2018-08-30T23:54:37.962Z,99671.63
2018-08-30T23:57:07.057Z,99668.06
2018-08-30T23:59:46.970Z,99669.44
